sensor_id;sensor_type;location;lat;lon;timestamp;P1;durP1;ratioP1;P2;durP2;ratioP2
47239;SDS011;32978;53.586;10.052;2023-07-28T00:02:35;11.93;;;11.02;;
47239;SDS011;32978;53.586;10.052;2023-07-28T00:07:32;11.60;;;10.65;;
47239;SDS011;32978;53.586;10.052;2023-07-28T00:12:31;12.32;;;11.30;;
47239;SDS011;32978;53.586;10.052;2023-07-28T00:17:27;13.13;;;12.02;;
47239;SDS011;32978;53.586;10.052;2023-07-28T00:22:24;11.45;;;10.65;;
47239;SDS011;32978;53.586;10.052;2023-07-28T00:27:20;11.95;;;10.95;;
47239;SDS011;32978;53.586;10.052;2023-07-28T00:32:16;10.95;;;10.15;;
47239;SDS011;32978;53.586;10.052;2023-07-28T00:37:13;12.05;;;11.10;;
47239;SDS011;32978;53.586;10.052;2023-07-28T00:42:09;11.52;;;10.63;;
47239;SDS011;32978;53.586;10.052;2023-07-28T00:47:05;11.88;;;10.98;;
47239;SDS011;32978;53.586;10.052;2023-07-28T00:52:02;11.63;;;10.73;;
47239;SDS011;32978;53.586;10.052;2023-07-28T00:56:59;12.18;;;11.10;;
47239;SDS011;32978;53.586;10.052;2023-07-28T01:01:55;11.35;;;10.55;;
47239;SDS011;32978;53.586;10.052;2023-07-28T01:11:57;11.15;;;10.25;;
47239;SDS011;32978;53.586;10.052;2023-07-28T01:16:55;10.85;;;10.05;;
47239;SDS011;32978;53.586;10.052;2023-07-28T01:21:59;11.48;;;10.68;;
47239;SDS011;32978;53.586;10.052;2023-07-28T01:27:00;12.05;;;11.13;;
47239;SDS011;32978;53.586;10.052;2023-07-28T01:31:59;10.90;;;10.10;;
47239;SDS011;32978;53.586;10.052;2023-07-28T01:36:55;10.98;;;10.18;;
47239;SDS011;32978;53.586;10.052;2023-07-28T01:41:51;11.85;;;10.95;;
47239;SDS011;32978;53.586;10.052;2023-07-28T01:46:47;10.73;;;9.98;;
47239;SDS011;32978;53.586;10.052;2023-07-28T01:51:44;10.93;;;10.13;;
47239;SDS011;32978;53.586;10.052;2023-07-28T01:56:40;10.50;;;9.68;;
47239;SDS011;32978;53.586;10.052;2023-07-28T02:01:36;10.52;;;9.75;;
47239;SDS011;32978;53.586;10.052;2023-07-28T02:06:33;11.73;;;10.32;;
47239;SDS011;32978;53.586;10.052;2023-07-28T02:11:29;10.73;;;10.02;;
47239;SDS011;32978;53.586;10.052;2023-07-28T02:16:26;10.82;;;10.02;;
47239;SDS011;32978;53.586;10.052;2023-07-28T02:21:23;10.98;;;10.18;;
47239;SDS011;32978;53.586;10.052;2023-07-28T02:26:20;10.82;;;9.93;;
47239;SDS011;32978;53.586;10.052;2023-07-28T02:31:16;11.52;;;10.73;;
47239;SDS011;32978;53.586;10.052;2023-07-28T02:36:13;10.90;;;10.10;;
47239;SDS011;32978;53.586;10.052;2023-07-28T02:41:09;11.95;;;10.98;;
47239;SDS011;32978;53.586;10.052;2023-07-28T02:46:06;11.77;;;10.88;;
47239;SDS011;32978;53.586;10.052;2023-07-28T02:51:02;12.10;;;11.05;;
47239;SDS011;32978;53.586;10.052;2023-07-28T02:55:59;11.63;;;10.82;;
47239;SDS011;32978;53.586;10.052;2023-07-28T03:00:55;13.95;;;12.85;;
47239;SDS011;32978;53.586;10.052;2023-07-28T03:05:52;13.88;;;12.82;;
47239;SDS011;32978;53.586;10.052;2023-07-28T03:10:48;12.23;;;11.32;;
47239;SDS011;32978;53.586;10.052;2023-07-28T03:15:45;11.95;;;10.98;;
47239;SDS011;32978;53.586;10.052;2023-07-28T03:20:41;11.43;;;10.63;;
47239;SDS011;32978;53.586;10.052;2023-07-28T03:25:37;11.20;;;10.30;;
47239;SDS011;32978;53.586;10.052;2023-07-28T03:30:33;11.10;;;10.20;;
47239;SDS011;32978;53.586;10.052;2023-07-28T03:35:30;10.70;;;9.98;;
47239;SDS011;32978;53.586;10.052;2023-07-28T03:40:26;10.65;;;9.85;;
47239;SDS011;32978;53.586;10.052;2023-07-28T03:45:23;10.68;;;9.73;;
47239;SDS011;32978;53.586;10.052;2023-07-28T03:50:19;10.68;;;9.88;;
47239;SDS011;32978;53.586;10.052;2023-07-28T03:55:15;11.38;;;10.38;;
47239;SDS011;32978;53.586;10.052;2023-07-28T04:00:12;10.95;;;10.15;;
47239;SDS011;32978;53.586;10.052;2023-07-28T04:05:09;11.10;;;10.40;;
47239;SDS011;32978;53.586;10.052;2023-07-28T04:10:06;10.23;;;9.52;;
47239;SDS011;32978;53.586;10.052;2023-07-28T04:15:03;10.98;;;10.27;;
47239;SDS011;32978;53.586;10.052;2023-07-28T04:19:59;11.32;;;10.52;;
47239;SDS011;32978;53.586;10.052;2023-07-28T04:24:55;11.50;;;10.70;;
47239;SDS011;32978;53.586;10.052;2023-07-28T04:29:52;11.95;;;11.10;;
47239;SDS011;32978;53.586;10.052;2023-07-28T04:34:48;12.80;;;11.80;;
47239;SDS011;32978;53.586;10.052;2023-07-28T04:56:28;12.50;;;11.60;;
47239;SDS011;32978;53.586;10.052;2023-07-28T05:01:25;12.27;;;11.38;;
47239;SDS011;32978;53.586;10.052;2023-07-28T05:06:21;12.88;;;11.98;;
47239;SDS011;32978;53.586;10.052;2023-07-28T05:11:17;13.40;;;12.40;;
47239;SDS011;32978;53.586;10.052;2023-07-28T05:16:14;13.52;;;12.60;;
47239;SDS011;32978;53.586;10.052;2023-07-28T05:21:10;13.07;;;12.18;;
47239;SDS011;32978;53.586;10.052;2023-07-28T05:26:06;12.25;;;11.45;;
47239;SDS011;32978;53.586;10.052;2023-07-28T05:36:52;13.07;;;12.18;;
47239;SDS011;32978;53.586;10.052;2023-07-28T05:41:51;13.38;;;12.45;;
47239;SDS011;32978;53.586;10.052;2023-07-28T05:46:48;12.80;;;11.90;;
47239;SDS011;32978;53.586;10.052;2023-07-28T05:51:45;14.85;;;13.75;;
47239;SDS011;32978;53.586;10.052;2023-07-28T05:56:41;14.07;;;13.07;;
47239;SDS011;32978;53.586;10.052;2023-07-28T06:01:37;13.63;;;12.73;;
47239;SDS011;32978;53.586;10.052;2023-07-28T06:06:37;13.77;;;12.82;;
47239;SDS011;32978;53.586;10.052;2023-07-28T06:39:44;11.63;;;10.75;;
47239;SDS011;32978;53.586;10.052;2023-07-28T06:44:41;12.70;;;11.45;;
47239;SDS011;32978;53.586;10.052;2023-07-28T06:49:37;13.35;;;12.45;;
47239;SDS011;32978;53.586;10.052;2023-07-28T06:54:34;12.82;;;11.82;;
47239;SDS011;32978;53.586;10.052;2023-07-28T06:59:31;14.40;;;13.40;;
47239;SDS011;32978;53.586;10.052;2023-07-28T07:04:27;14.07;;;12.88;;
47239;SDS011;32978;53.586;10.052;2023-07-28T07:09:24;12.85;;;11.93;;
47239;SDS011;32978;53.586;10.052;2023-07-28T07:14:20;13.35;;;12.02;;
47239;SDS011;32978;53.586;10.052;2023-07-28T07:19:18;12.00;;;11.20;;
47239;SDS011;32978;53.586;10.052;2023-07-28T07:24:15;11.50;;;10.68;;
47239;SDS011;32978;53.586;10.052;2023-07-28T07:55:04;10.30;;;9.60;;
47239;SDS011;32978;53.586;10.052;2023-07-28T08:10:22;10.02;;;9.38;;
47239;SDS011;32978;53.586;10.052;2023-07-28T08:15:18;11.27;;;10.45;;
47239;SDS011;32978;53.586;10.052;2023-07-28T08:20:14;9.80;;;9.00;;
47239;SDS011;32978;53.586;10.052;2023-07-28T08:25:11;11.05;;;10.35;;
47239;SDS011;32978;53.586;10.052;2023-07-28T08:50:52;13.02;;;12.02;;
47239;SDS011;32978;53.586;10.052;2023-07-28T10:04:34;8.63;;;8.02;;
47239;SDS011;32978;53.586;10.052;2023-07-28T10:15:17;8.27;;;7.68;;
47239;SDS011;32978;53.586;10.052;2023-07-28T12:30:29;7.15;;;6.65;;
47239;SDS011;32978;53.586;10.052;2023-07-28T12:35:27;7.07;;;6.57;;
47239;SDS011;32978;53.586;10.052;2023-07-28T14:16:34;6.55;;;6.05;;
47239;SDS011;32978;53.586;10.052;2023-07-28T14:21:40;6.15;;;5.75;;
47239;SDS011;32978;53.586;10.052;2023-07-28T14:26:39;6.93;;;6.18;;
47239;SDS011;32978;53.586;10.052;2023-07-28T14:31:36;6.88;;;6.38;;
47239;SDS011;32978;53.586;10.052;2023-07-28T14:36:32;6.88;;;6.38;;
47239;SDS011;32978;53.586;10.052;2023-07-28T14:41:30;6.32;;;5.82;;
47239;SDS011;32978;53.586;10.052;2023-07-28T14:46:27;5.90;;;5.50;;
47239;SDS011;32978;53.586;10.052;2023-07-28T14:51:23;6.53;;;6.13;;
47239;SDS011;32978;53.586;10.052;2023-07-28T14:56:20;6.57;;;6.07;;
47239;SDS011;32978;53.586;10.052;2023-07-28T15:01:28;6.57;;;6.07;;
47239;SDS011;32978;53.586;10.052;2023-07-28T15:07:20;5.80;;;5.30;;
47239;SDS011;32978;53.586;10.052;2023-07-28T15:19:56;7.20;;;5.75;;
47239;SDS011;32978;53.586;10.052;2023-07-28T15:24:33;6.70;;;6.20;;
47239;SDS011;32978;53.586;10.052;2023-07-28T15:29:29;6.28;;;5.85;;
47239;SDS011;32978;53.586;10.052;2023-07-28T15:34:26;6.57;;;6.03;;
47239;SDS011;32978;53.586;10.052;2023-07-28T15:39:22;6.75;;;6.22;;
47239;SDS011;32978;53.586;10.052;2023-07-28T15:44:19;6.13;;;5.70;;
47239;SDS011;32978;53.586;10.052;2023-07-28T15:49:15;6.43;;;6.03;;
47239;SDS011;32978;53.586;10.052;2023-07-28T15:54:11;7.00;;;6.50;;
47239;SDS011;32978;53.586;10.052;2023-07-28T15:59:08;7.10;;;6.50;;
47239;SDS011;32978;53.586;10.052;2023-07-28T16:04:04;6.75;;;6.20;;
47239;SDS011;32978;53.586;10.052;2023-07-28T16:09:00;6.75;;;6.25;;
47239;SDS011;32978;53.586;10.052;2023-07-28T16:14:11;7.15;;;6.65;;
47239;SDS011;32978;53.586;10.052;2023-07-28T16:19:08;7.10;;;6.60;;
47239;SDS011;32978;53.586;10.052;2023-07-28T16:24:04;7.00;;;6.50;;
47239;SDS011;32978;53.586;10.052;2023-07-28T16:29:01;6.93;;;6.43;;
47239;SDS011;32978;53.586;10.052;2023-07-28T16:33:57;7.00;;;6.50;;
47239;SDS011;32978;53.586;10.052;2023-07-28T16:38:54;7.18;;;6.57;;
47239;SDS011;32978;53.586;10.052;2023-07-28T16:43:50;6.90;;;6.40;;
47239;SDS011;32978;53.586;10.052;2023-07-28T16:48:46;7.25;;;6.70;;
47239;SDS011;32978;53.586;10.052;2023-07-28T16:53:42;7.25;;;6.75;;
47239;SDS011;32978;53.586;10.052;2023-07-28T17:04:40;6.35;;;5.85;;
47239;SDS011;32978;53.586;10.052;2023-07-28T17:09:37;6.45;;;5.95;;
47239;SDS011;32978;53.586;10.052;2023-07-28T17:14:33;6.47;;;5.97;;
47239;SDS011;32978;53.586;10.052;2023-07-28T17:25:14;6.75;;;6.25;;
47239;SDS011;32978;53.586;10.052;2023-07-28T17:30:10;6.60;;;6.10;;
47239;SDS011;32978;53.586;10.052;2023-07-28T17:35:06;7.15;;;6.55;;
47239;SDS011;32978;53.586;10.052;2023-07-28T17:40:04;6.55;;;6.05;;
47239;SDS011;32978;53.586;10.052;2023-07-28T17:45:02;6.47;;;5.97;;
47239;SDS011;32978;53.586;10.052;2023-07-28T17:50:03;7.65;;;7.07;;
47239;SDS011;32978;53.586;10.052;2023-07-28T17:55:01;6.90;;;6.40;;
47239;SDS011;32978;53.586;10.052;2023-07-28T17:59:57;6.40;;;5.80;;
47239;SDS011;32978;53.586;10.052;2023-07-28T18:04:53;6.57;;;6.07;;
47239;SDS011;32978;53.586;10.052;2023-07-28T18:09:50;6.38;;;5.90;;
47239;SDS011;32978;53.586;10.052;2023-07-28T18:14:48;7.20;;;6.53;;
47239;SDS011;32978;53.586;10.052;2023-07-28T18:19:44;6.55;;;6.00;;
47239;SDS011;32978;53.586;10.052;2023-07-28T18:24:40;6.97;;;6.47;;
47239;SDS011;32978;53.586;10.052;2023-07-28T18:29:45;6.47;;;5.97;;
47239;SDS011;32978;53.586;10.052;2023-07-28T18:35:30;5.93;;;5.40;;
47239;SDS011;32978;53.586;10.052;2023-07-28T18:40:26;6.18;;;5.68;;
47239;SDS011;32978;53.586;10.052;2023-07-28T18:45:25;6.43;;;5.93;;
47239;SDS011;32978;53.586;10.052;2023-07-28T18:50:21;7.18;;;6.63;;
47239;SDS011;32978;53.586;10.052;2023-07-28T18:55:23;7.50;;;6.93;;
47239;SDS011;32978;53.586;10.052;2023-07-28T19:00:19;6.93;;;6.32;;
47239;SDS011;32978;53.586;10.052;2023-07-28T19:05:16;7.53;;;6.82;;
47239;SDS011;32978;53.586;10.052;2023-07-28T19:10:12;6.80;;;6.30;;
47239;SDS011;32978;53.586;10.052;2023-07-28T19:15:09;7.93;;;7.15;;
47239;SDS011;32978;53.586;10.052;2023-07-28T19:20:06;8.02;;;7.43;;
47239;SDS011;32978;53.586;10.052;2023-07-28T19:25:06;7.90;;;7.25;;
47239;SDS011;32978;53.586;10.052;2023-07-28T19:30:02;8.18;;;7.57;;
47239;SDS011;32978;53.586;10.052;2023-07-28T19:34:59;8.45;;;7.80;;
47239;SDS011;32978;53.586;10.052;2023-07-28T19:39:56;8.70;;;8.00;;
47239;SDS011;32978;53.586;10.052;2023-07-28T19:44:52;9.18;;;8.38;;
47239;SDS011;32978;53.586;10.052;2023-07-28T19:49:51;10.38;;;9.32;;
47239;SDS011;32978;53.586;10.052;2023-07-28T19:55:06;9.15;;;8.45;;
47239;SDS011;32978;53.586;10.052;2023-07-28T20:00:02;9.82;;;9.02;;
47239;SDS011;32978;53.586;10.052;2023-07-28T20:05:01;9.70;;;8.90;;
47239;SDS011;32978;53.586;10.052;2023-07-28T20:09:58;9.43;;;8.63;;
47239;SDS011;32978;53.586;10.052;2023-07-28T20:14:55;10.77;;;9.88;;
47239;SDS011;32978;53.586;10.052;2023-07-28T20:25:09;10.65;;;9.25;;
47239;SDS011;32978;53.586;10.052;2023-07-28T20:30:06;10.65;;;9.65;;
47239;SDS011;32978;53.586;10.052;2023-07-28T20:35:02;11.13;;;10.13;;
47239;SDS011;32978;53.586;10.052;2023-07-28T20:40:00;11.70;;;10.63;;
47239;SDS011;32978;53.586;10.052;2023-07-28T20:44:57;11.82;;;10.75;;
47239;SDS011;32978;53.586;10.052;2023-07-28T20:49:53;12.10;;;11.10;;
47239;SDS011;32978;53.586;10.052;2023-07-28T20:54:50;12.27;;;11.20;;
47239;SDS011;32978;53.586;10.052;2023-07-28T20:59:46;12.63;;;11.43;;
47239;SDS011;32978;53.586;10.052;2023-07-28T21:04:43;11.93;;;10.93;;
47239;SDS011;32978;53.586;10.052;2023-07-28T21:15:27;12.13;;;11.02;;
47239;SDS011;32978;53.586;10.052;2023-07-28T21:20:07;13.00;;;11.63;;
47239;SDS011;32978;53.586;10.052;2023-07-28T21:25:03;13.95;;;12.75;;
47239;SDS011;32978;53.586;10.052;2023-07-28T21:30:00;12.73;;;11.55;;
47239;SDS011;32978;53.586;10.052;2023-07-28T21:34:56;12.95;;;11.75;;
47239;SDS011;32978;53.586;10.052;2023-07-28T21:39:52;13.23;;;12.02;;
47239;SDS011;32978;53.586;10.052;2023-07-28T21:44:49;13.63;;;12.43;;
47239;SDS011;32978;53.586;10.052;2023-07-28T21:49:45;13.98;;;12.77;;
47239;SDS011;32978;53.586;10.052;2023-07-28T21:54:41;14.20;;;12.80;;
47239;SDS011;32978;53.586;10.052;2023-07-28T21:59:38;14.82;;;13.30;;
47239;SDS011;32978;53.586;10.052;2023-07-28T22:04:34;15.02;;;13.63;;
47239;SDS011;32978;53.586;10.052;2023-07-28T22:09:31;16.48;;;14.77;;
47239;SDS011;32978;53.586;10.052;2023-07-28T22:14:27;14.90;;;13.45;;
47239;SDS011;32978;53.586;10.052;2023-07-28T22:19:23;15.93;;;14.43;;
47239;SDS011;32978;53.586;10.052;2023-07-28T22:24:19;16.13;;;14.65;;
47239;SDS011;32978;53.586;10.052;2023-07-28T22:29:16;16.40;;;14.80;;
47239;SDS011;32978;53.586;10.052;2023-07-28T22:34:12;16.25;;;14.40;;
47239;SDS011;32978;53.586;10.052;2023-07-28T22:39:08;16.05;;;14.38;;
47239;SDS011;32978;53.586;10.052;2023-07-28T22:44:05;16.33;;;14.63;;
47239;SDS011;32978;53.586;10.052;2023-07-28T22:49:01;17.38;;;15.88;;
47239;SDS011;32978;53.586;10.052;2023-07-28T22:53:57;15.90;;;14.32;;
47239;SDS011;32978;53.586;10.052;2023-07-28T22:58:54;16.60;;;14.75;;
47239;SDS011;32978;53.586;10.052;2023-07-28T23:03:50;14.98;;;13.55;;
47239;SDS011;32978;53.586;10.052;2023-07-28T23:08:46;16.05;;;14.27;;
47239;SDS011;32978;53.586;10.052;2023-07-28T23:13:43;15.23;;;13.73;;
47239;SDS011;32978;53.586;10.052;2023-07-28T23:18:40;15.65;;;14.15;;
47239;SDS011;32978;53.586;10.052;2023-07-28T23:23:36;15.35;;;13.85;;
47239;SDS011;32978;53.586;10.052;2023-07-28T23:28:33;15.82;;;14.23;;
47239;SDS011;32978;53.586;10.052;2023-07-28T23:33:29;16.38;;;14.85;;
47239;SDS011;32978;53.586;10.052;2023-07-28T23:38:27;16.15;;;14.52;;
47239;SDS011;32978;53.586;10.052;2023-07-28T23:43:23;15.65;;;14.32;;
47239;SDS011;32978;53.586;10.052;2023-07-28T23:48:20;15.93;;;14.43;;
47239;SDS011;32978;53.586;10.052;2023-07-28T23:53:17;15.85;;;14.25;;
47239;SDS011;32978;53.586;10.052;2023-07-28T23:58:14;16.00;;;14.40;;
